Terminal Aerodrome Forecast
Issued by NWS

Home | Current Version | Previous Version | Graphics & Text | Print | Product List | Glossary On
Versions: 1 2 3 4 5 6 7 8 9 10 11 12 13 14 15 16
000
FTUS43 KGRB 162001 AAA
TAFMTW
TAF AMD
KMTW 162001Z 1620/1718 10004KT P6SM -DZ BKN025 OVC070
     FM162100 11005KT P6SM -FZRASN SCT015 OVC040
      TEMPO 1621/1623 3SM -FZRAPL BR BKN015
     FM162300 11005KT 3SM -FZRA BR OVC008
     FM170200 08008G15KT 1 1/2SM -RA BR OVC005
     FM170800 04008G15KT 1 1/2SM -RA BR OVC003
     FM171500 36008G15KT 1 1/2SM -RA BR OVC003=

USA.gov is the U.S. government's official web portal to all federal, state and local government web resources and services.